Time;durP1;ratioP1;P1;durP2;ratioP2;P2;SDS_P1;SDS_P2;PMS_P1;PMS_P2;Temp;Humidity;BMP_temperature;BMP_pressure;BME280_temperature;BME280_humidity;BME280_pressure;Samples;Min_cycle;Max_cycle;Signal;HPM_P1;HPM_P2
2022/10/21 00:00:20;;;;;;;;;3.00;1.00;;;;;17.83;65.15;100101.19;5072960;28;46210;-59
2022/10/21 00:02:45;;;;;;;;;3.75;2.50;;;;;17.83;65.07;100098.53;5070573;27;72740;-58
2022/10/21 00:05:11;;;;;;;;;5.25;2.00;;;;;17.84;65.10;100094.94;5078416;27;45356;-59
2022/10/21 00:07:37;;;;;;;;;2.75;2.00;;;;;17.82;65.15;100099.47;5070473;28;45324;-57
2022/10/21 00:10:04;;;;;;;;;2.50;2.50;;;;;17.83;65.05;100102.03;5075464;27;46943;-58
2022/10/21 00:12:29;;;;;;;;;2.75;1.75;;;;;17.82;64.92;100097.69;5072178;28;45459;-59
2022/10/21 00:14:55;;;;;;;;;2.00;2.00;;;;;17.79;65.18;100091.75;5071910;27;45356;-59
2022/10/21 00:17:20;;;;;;;;;3.00;1.00;;;;;17.78;65.18;100084.78;5072119;27;63559;-60
2022/10/21 00:19:45;;;;;;;;;3.00;1.00;;;;;17.79;65.30;100078.50;5068478;27;45356;-60
2022/10/21 00:22:11;;;;;;;;;1.00;1.00;;;;;17.80;64.83;100078.41;5077183;27;45858;-59
2022/10/21 00:24:36;;;;;;;;;2.75;2.50;;;;;17.78;65.28;100077.66;5074015;27;45292;-60
2022/10/21 00:27:02;;;;;;;;;4.00;4.00;;;;;17.79;65.20;100071.41;5069885;27;45198;-61
2022/10/21 00:29:28;;;;;;;;;2.75;2.50;;;;;17.81;65.35;100082.75;5067946;27;46280;-59
2022/10/21 00:31:54;;;;;;;;;3.25;1.75;;;;;17.82;64.99;100075.66;5069751;27;45962;-60
2022/10/21 00:34:20;;;;;;;;;2.75;2.00;;;;;17.83;65.29;100067.63;5080288;28;45403;-58
2022/10/21 00:36:45;;;;;;;;;6.25;2.00;;;;;17.85;65.31;100062.22;5075747;28;45581;-59
2022/10/21 00:39:11;;;;;;;;;5.00;2.25;;;;;17.88;65.20;100059.38;5069049;28;46296;-59
2022/10/21 00:41:36;;;;;;;;;2.00;2.00;;;;;17.90;65.31;100065.44;5073525;28;62572;-58
2022/10/21 00:44:05;;;;;;;;;1.00;1.00;;;;;17.91;65.12;100069.75;5078549;28;45990;-58
2022/10/21 00:46:51;;;;;;;;;4.75;2.50;;;;;17.92;65.18;100062.66;5069513;28;46820;-59
2022/10/21 00:49:16;;;;;;;;;5.25;2.25;;;;;17.96;65.02;100066.81;5075642;28;47374;-59
2022/10/21 00:51:45;;;;;;;;;3.33;2.33;;;;;17.97;64.96;100055.25;5077119;28;45268;-59
2022/10/21 00:54:10;;;;;;;;;5.50;1.00;;;;;17.97;65.00;100055.25;5075021;27;45359;-59
2022/10/21 00:56:36;;;;;;;;;1.75;1.00;;;;;17.97;65.07;100053.47;5069037;27;45471;-59
2022/10/21 00:59:04;;;;;;;;;3.00;3.00;;;;;17.96;64.95;100046.47;5078865;27;45565;-59
2022/10/21 01:01:29;;;;;;;;;7.25;2.75;;;;;17.97;64.91;100044.66;5073403;27;45802;-59
2022/10/21 01:03:55;;;;;;;;;3.00;2.25;;;;;17.96;64.96;100035.88;5075551;28;45279;-59
2022/10/21 01:06:23;;;;;;;;;3.00;3.00;;;;;17.95;65.25;100028.88;5078457;27;69418;-57
2022/10/21 01:08:49;;;;;;;;;3.00;2.00;;;;;17.96;65.12;100029.75;5077139;27;47496;-57
2022/10/21 01:11:17;;;;;;;;;2.50;2.25;;;;;17.96;65.13;100011.22;5069535;27;45762;-58
2022/10/21 01:14:20;;;;;;;;;2.75;2.75;;;;;17.97;65.13;100010.25;5070701;28;45280;-58
2022/10/21 01:16:52;;;;;;;;;2.00;2.00;;;;;17.93;65.03;99995.53;4992904;28;46481;-58
2022/10/21 01:19:29;;;;;;;;;3.50;3.00;;;;;17.89;65.16;100000.22;5055187;28;45507;-59
2022/10/21 01:22:05;;;;;;;;;2.50;2.25;;;;;17.89;65.40;99997.56;5079237;27;46080;-58
2022/10/21 01:24:36;;;;;;;;;3.00;1.00;;;;;17.90;65.35;99993.09;5072358;28;45459;-58
2022/10/21 01:27:22;;;;;;;;;3.50;2.00;;;;;17.88;65.12;99984.44;5066129;27;45378;-58
2022/10/21 01:29:50;;;;;;;;;6.50;2.00;;;;;17.92;65.42;99988.53;5090698;27;45472;-60
2022/10/21 01:32:37;;;;;;;;;4.00;3.00;;;;;17.94;65.21;99979.56;5069835;28;45394;-58
2022/10/21 01:35:11;;;;;;;;;1.75;1.50;;;;;17.97;65.26;99986.44;5071972;27;45553;-59
2022/10/21 01:37:50;;;;;;;;;2.25;2.00;;;;;18.00;65.16;100000.28;5073385;27;45612;-59
2022/10/21 01:40:33;;;;;;;;;7.00;3.00;;;;;18.01;65.37;99999.34;5086430;27;46314;-59
2022/10/21 01:43:06;;;;;;;;;2.75;2.75;;;;;18.03;65.25;100002.72;5074463;27;45231;-60
2022/10/21 01:45:36;;;;;;;;;4.50;2.75;;;;;18.05;65.06;100009.72;5079669;27;45446;-60
2022/10/21 01:48:07;;;;;;;;;2.75;2.75;;;;;18.05;65.36;100009.72;5076604;27;45295;-61
2022/10/21 01:50:37;;;;;;;;;3.00;3.00;;;;;18.06;65.59;99998.16;5093630;27;46141;-60
2022/10/21 01:53:09;;;;;;;;;6.00;4.25;;;;;18.07;65.28;100003.38;5091952;27;45625;-60
2022/10/21 01:55:36;;;;;;;;;5.00;4.00;;;;;18.09;65.42;100014.69;5060981;27;45462;-61
2022/10/21 01:58:07;;;;;;;;;3.50;3.00;;;;;18.10;65.27;100019.03;5062403;27;45253;-60
2022/10/21 02:00:34;;;;;;;;;5.00;3.00;;;;;18.10;65.43;100027.00;5091277;27;45453;-60
2022/10/21 02:03:04;;;;;;;;;5.25;3.50;;;;;18.14;65.21;100052.28;5085583;27;45280;-60
2022/10/21 02:05:31;;;;;;;;;3.50;3.50;;;;;18.13;65.54;100076.22;5060353;27;45591;-59
2022/10/21 02:07:56;;;;;;;;;2.00;2.00;;;;;18.14;65.68;100109.72;5091620;27;45477;-60
2022/10/21 02:10:22;;;;;;;;;4.50;3.00;;;;;18.12;66.41;100111.63;5096810;27;46110;-59
2022/10/21 02:12:50;;;;;;;;;2.00;2.00;;;;;18.08;66.33;100118.94;5094605;27;45699;-60
2022/10/21 02:15:17;;;;;;;;;3.75;2.75;;;;;18.03;67.24;100124.53;5072486;27;54451;-60
2022/10/21 02:17:49;;;;;;;;;4.50;2.00;;;;;17.94;67.23;100127.81;5077051;27;45506;-60
2022/10/21 02:20:15;;;;;;;;;4.00;2.00;;;;;17.90;67.83;100117.50;5074042;27;46542;-60
2022/10/21 02:22:41;;;;;;;;;4.00;2.50;;;;;17.84;68.25;100103.72;5098463;27;62420;-59
2022/10/21 02:25:16;;;;;;;;;3.00;2.00;;;;;17.81;67.99;100076.59;5077942;27;54413;-60
2022/10/21 02:27:41;;;;;;;;;3.00;2.00;;;;;17.79;68.64;100067.91;5078335;27;45457;-60
2022/10/21 02:30:07;;;;;;;;;8.25;4.00;;;;;17.77;69.08;100060.09;5078617;27;46138;-59
2022/10/21 02:32:38;;;;;;;;;4.50;4.50;;;;;17.76;68.88;100044.31;5097446;27;45347;-60
2022/10/21 02:35:25;;;;;;;;;5.25;4.00;;;;;17.74;69.10;100040.91;5072138;27;45529;-61
2022/10/21 02:37:54;;;;;;;;;2.25;2.25;;;;;17.73;69.11;100031.31;5088941;27;45265;-61
2022/10/21 02:40:51;;;;;;;;;5.50;2.50;;;;;17.71;69.90;99994.34;5078348;28;47246;-59
2022/10/21 02:43:21;;;;;;;;;3.25;2.00;;;;;17.70;70.28;99952.97;5067964;27;45465;-60
2022/10/21 02:45:47;;;;;;;;;4.00;3.00;;;;;17.71;70.43;99952.00;5074486;27;45570;-60
2022/10/21 02:48:12;;;;;;;;;3.25;1.25;;;;;17.71;69.35;99932.66;5076100;27;46599;-59
2022/10/21 02:50:38;;;;;;;;;3.25;1.75;;;;;17.69;69.85;99950.41;5089536;27;46223;-59
2022/10/21 02:53:03;;;;;;;;;5.50;3.00;;;;;17.68;70.34;99946.09;5089802;27;45572;-60
2022/10/21 02:55:28;;;;;;;;;4.00;2.00;;;;;17.70;70.36;99941.53;5090114;27;45725;-58
2022/10/21 02:57:54;;;;;;;;;4.00;2.00;;;;;17.70;70.55;99955.59;5095138;27;45314;-59
2022/10/21 03:00:19;;;;;;;;;6.00;2.00;;;;;17.71;70.22;99941.44;5095153;27;45513;-59
2022/10/21 03:02:44;;;;;;;;;2.00;2.00;;;;;17.71;69.71;99941.44;5093742;27;66259;-59
2022/10/21 03:05:11;;;;;;;;;2.00;2.00;;;;;17.68;70.00;99943.44;5097529;27;68761;-59
2022/10/21 03:07:37;;;;;;;;;2.00;2.00;;;;;17.63;70.49;99941.09;5095690;27;45722;-59
2022/10/21 03:10:03;;;;;;;;;6.00;1.50;;;;;17.62;70.10;99939.44;5097258;27;46380;-59
2022/10/21 03:12:29;;;;;;;;;5.00;1.00;;;;;17.61;70.81;99938.56;5094075;27;45697;-60
2022/10/21 03:14:54;;;;;;;;;2.00;2.00;;;;;17.63;70.39;99941.94;5088118;27;65487;-59
2022/10/21 03:17:19;;;;;;;;;3.00;3.00;;;;;17.67;70.67;99954.97;5086855;27;70788;-58
2022/10/21 03:19:44;;;;;;;;;3.25;1.75;;;;;17.71;70.94;99988.22;5100313;27;48046;-58
2022/10/21 03:22:10;;;;;;;;;2.00;2.00;;;;;17.73;70.50;99997.75;5100178;27;69580;-57
2022/10/21 03:24:35;;;;;;;;;2.00;1.00;;;;;17.75;70.82;100014.34;5084796;27;45281;-58
2022/10/21 03:27:01;;;;;;;;;2.75;2.00;;;;;17.77;70.92;100012.44;5073324;27;45601;-59
2022/10/21 03:29:26;;;;;;;;;4.00;2.50;;;;;17.79;70.96;100029.06;5076773;27;70544;-58
2022/10/21 03:31:51;;;;;;;;;4.75;3.00;;;;;17.83;70.56;100011.19;5094966;27;71136;-58
2022/10/21 03:34:17;;;;;;;;;2.00;2.00;;;;;17.87;70.80;100006.56;5101989;27;45445;-58
2022/10/21 03:36:42;;;;;;;;;3.25;2.00;;;;;17.90;70.67;100001.03;5090348;27;45822;-58
2022/10/21 03:39:09;;;;;;;;;2.00;0.50;;;;;17.89;70.60;99989.63;5083195;27;67585;-58
2022/10/21 03:41:34;;;;;;;;;1.00;1.00;;;;;17.89;70.05;99984.31;5094014;27;45840;-58
2022/10/21 03:43:59;;;;;;;;;1.00;1.00;;;;;17.87;70.34;99990.69;5096301;27;63158;-58
2022/10/21 03:46:24;;;;;;;;;3.00;2.00;;;;;17.87;70.56;100003.94;5089590;27;63384;-58
2022/10/21 03:48:50;;;;;;;;;8.50;2.00;;;;;17.86;70.46;99992.47;5099101;27;66634;-58
2022/10/21 03:51:15;;;;;;;;;4.25;3.00;;;;;17.90;70.19;99993.09;5092648;27;58041;-58
2022/10/21 03:53:40;;;;;;;;;5.00;1.75;;;;;17.90;70.04;99987.81;5092367;27;61380;-58
2022/10/21 03:56:06;;;;;;;;;2.75;2.75;;;;;17.90;70.04;100006.34;5098594;27;67126;-58
2022/10/21 03:58:34;;;;;;;;;3.00;3.00;;;;;17.89;70.50;100017.91;5072646;27;45313;-58
2022/10/21 04:00:59;;;;;;;;;3.00;2.00;;;;;17.89;70.33;100004.66;5095558;27;45246;-58
2022/10/21 04:03:24;;;;;;;;;1.50;1.25;;;;;17.90;70.02;100003.69;5095755;27;62298;-59
2022/10/21 04:05:50;;;;;;;;;2.75;2.00;;;;;17.92;70.02;100007.94;5095045;27;67112;-58
2022/10/21 04:08:15;;;;;;;;;5.75;3.50;;;;;17.92;70.09;100012.38;5089826;27;51922;-59
2022/10/21 04:10:40;;;;;;;;;2.75;2.75;;;;;17.93;69.86;100022.00;5098455;27;46964;-59
2022/10/21 04:13:06;;;;;;;;;2.00;2.00;;;;;17.93;70.06;100022.00;5092803;27;45271;-58
2022/10/21 04:15:31;;;;;;;;;2.00;2.00;;;;;17.93;70.04;100011.44;5093150;27;45359;-58
2022/10/21 04:17:56;;;;;;;;;2.75;2.50;;;;;17.94;70.37;100011.31;5080340;27;70441;-59
2022/10/21 04:20:22;;;;;;;;;4.50;3.00;;;;;17.94;69.73;100016.63;5098306;27;72793;-58
2022/10/21 04:22:47;;;;;;;;;2.00;1.00;;;;;17.93;69.89;100006.97;5096930;27;64023;-59
2022/10/21 04:25:12;;;;;;;;;3.00;1.50;;;;;17.92;69.78;100005.28;5094374;27;68855;-58
2022/10/21 04:27:38;;;;;;;;;2.75;2.75;;;;;17.91;69.90;100000.94;5094986;27;46887;-58
2022/10/21 04:30:03;;;;;;;;;6.00;3.00;;;;;17.89;69.89;100007.31;5087686;27;69237;-58
2022/10/21 04:32:29;;;;;;;;;4.75;3.00;;;;;17.89;69.79;100013.44;5097360;27;45272;-59
2022/10/21 04:34:54;;;;;;;;;3.25;3.00;;;;;17.89;69.87;100021.38;5090623;27;62139;-58
2022/10/21 04:37:19;;;;;;;;;7.50;4.00;;;;;17.89;69.92;100021.38;5079737;27;46229;-58
2022/10/21 04:39:45;;;;;;;;;5.00;4.00;;;;;17.89;70.29;100020.53;5095790;27;71450;-59
2022/10/21 04:42:10;;;;;;;;;4.50;4.00;;;;;17.90;70.21;100012.50;5097408;27;69428;-58
2022/10/21 04:44:39;;;;;;;;;5.00;3.25;;;;;17.90;70.30;100015.16;5095103;27;45375;-58
2022/10/21 04:47:04;;;;;;;;;6.00;2.75;;;;;17.96;70.18;100019.16;5086700;27;48071;-58
2022/10/21 04:49:30;;;;;;;;;5.50;4.50;;;;;17.96;70.17;100024.47;5096736;27;45256;-59
2022/10/21 04:51:55;;;;;;;;;6.00;4.00;;;;;17.99;70.34;100030.38;5089281;27;62977;-58
2022/10/21 04:54:20;;;;;;;;;6.75;4.00;;;;;17.99;69.92;100018.97;5095000;27;46732;-58
2022/10/21 04:56:46;;;;;;;;;5.00;3.00;;;;;17.98;70.06;100020.75;5092551;27;62534;-58
2022/10/21 04:59:11;;;;;;;;;5.00;3.00;;;;;17.98;69.60;100025.19;5089917;27;45401;-58
2022/10/21 05:01:37;;;;;;;;;5.00;2.50;;;;;17.94;70.05;100021.91;5096203;27;45407;-58
2022/10/21 05:04:02;;;;;;;;;3.25;3.25;;;;;17.95;70.26;100028.03;5074194;27;63255;-58
2022/10/21 05:06:27;;;;;;;;;7.25;4.00;;;;;17.96;70.44;100022.66;5098173;27;46182;-58
2022/10/21 05:08:53;;;;;;;;;5.00;4.00;;;;;17.97;70.15;100031.44;5088771;27;65573;-59
2022/10/21 05:11:18;;;;;;;;;5.25;4.00;;;;;17.96;70.25;100027.94;5064859;27;69022;-60
2022/10/21 05:13:44;;;;;;;;;6.75;4.00;;;;;17.97;70.18;100024.34;5075630;27;52654;-59
2022/10/21 05:16:10;;;;;;;;;4.00;4.00;;;;;17.97;70.09;100019.06;5089827;27;46222;-59
2022/10/21 05:18:35;;;;;;;;;6.75;4.50;;;;;17.99;70.00;100022.44;5097246;27;45326;-60
2022/10/21 05:21:00;;;;;;;;;4.50;2.50;;;;;18.00;70.47;100025.94;5071412;28;59037;-59
2022/10/21 05:23:26;;;;;;;;;8.50;6.00;;;;;18.00;70.08;100021.47;5089566;27;71970;-59
2022/10/21 05:25:51;;;;;;;;;4.75;3.75;;;;;18.00;70.21;100036.53;5090238;27;45292;-60
2022/10/21 05:28:19;;;;;;;;;5.00;3.25;;;;;18.00;70.34;100045.31;5092007;27;45343;-60
2022/10/21 05:30:45;;;;;;;;;4.75;3.50;;;;;17.99;70.25;100053.38;5097900;27;45412;-58
2022/10/21 05:33:10;;;;;;;;;6.00;5.00;;;;;17.99;70.05;100048.91;5093871;27;45549;-59
2022/10/21 05:35:36;;;;;;;;;6.25;4.00;;;;;18.00;70.26;100042.66;5095646;27;45531;-60
2022/10/21 05:38:01;;;;;;;;;6.50;5.00;;;;;18.03;70.35;100033.66;5095297;27;61360;-61
2022/10/21 05:40:26;;;;;;;;;6.50;4.25;;;;;18.03;70.00;100029.22;5093016;27;45411;-59
2022/10/21 05:42:52;;;;;;;;;4.75;4.00;;;;;18.03;70.25;100029.22;5086274;27;64325;-59
2022/10/21 05:45:17;;;;;;;;;5.00;4.00;;;;;18.06;70.39;100035.25;5081229;27;66821;-59
2022/10/21 05:47:43;;;;;;;;;7.00;4.50;;;;;18.07;70.47;100029.84;5092878;27;45350;-59
2022/10/21 05:50:10;;;;;;;;;4.75;4.50;;;;;18.09;70.61;100027.09;5091458;27;64130;-59
2022/10/21 05:52:36;;;;;;;;;6.50;5.00;;;;;18.11;70.40;100030.47;5091155;27;45399;-59
2022/10/21 05:55:02;;;;;;;;;5.00;4.50;;;;;18.13;70.49;100039.16;5087389;27;46337;-60
2022/10/21 05:57:27;;;;;;;;;8.00;6.00;;;;;18.14;70.40;100038.22;5092853;27;45607;-59
2022/10/21 05:59:52;;;;;;;;;5.50;4.00;;;;;18.15;70.25;100038.09;5087456;27;58986;-59
2022/10/21 06:02:18;;;;;;;;;6.25;5.00;;;;;18.16;70.49;100060.97;5090807;27;45653;-59
2022/10/21 06:04:43;;;;;;;;;5.00;4.50;;;;;18.15;70.21;100058.44;5095892;27;55418;-59
2022/10/21 06:07:08;;;;;;;;;9.00;6.75;;;;;18.16;70.08;100071.56;5076593;27;45658;-59
2022/10/21 06:09:34;;;;;;;;;7.25;4.00;;;;;18.16;70.05;100079.50;5074871;27;45465;-60
2022/10/21 06:11:59;;;;;;;;;6.00;4.50;;;;;18.17;70.54;100091.81;5090803;27;45623;-59
2022/10/21 06:14:25;;;;;;;;;6.25;5.25;;;;;18.18;69.77;100101.47;5078009;27;65772;-60
2022/10/21 06:16:51;;;;;;;;;6.50;4.00;;;;;18.17;70.00;100113.00;5074831;27;61888;-59
2022/10/21 06:19:16;;;;;;;;;8.50;6.00;;;;;18.18;70.30;100124.44;5097622;27;68380;-59
2022/10/21 06:21:41;;;;;;;;;4.00;3.75;;;;;18.17;70.14;100125.41;5086513;27;69577;-59
2022/10/21 06:24:07;;;;;;;;;5.50;4.50;;;;;18.19;70.15;100121.69;5098855;27;65131;-61
2022/10/21 06:26:32;;;;;;;;;7.50;4.50;;;;;18.20;70.18;100110.16;5084794;27;45351;-60
2022/10/21 06:28:57;;;;;;;;;5.00;4.00;;;;;18.20;69.95;100123.38;5085299;27;56119;-59
2022/10/21 06:31:23;;;;;;;;;7.00;3.00;;;;;18.20;70.29;100126.03;5073877;27;62317;-60
2022/10/21 06:33:48;;;;;;;;;5.25;4.00;;;;;18.22;70.27;100125.94;5095974;27;70269;-59
2022/10/21 06:36:14;;;;;;;;;4.50;3.25;;;;;18.23;70.03;100146.16;5077945;27;65289;-59
2022/10/21 06:38:40;;;;;;;;;5.50;4.00;;;;;18.24;70.18;100162.88;5078316;27;45532;-58
2022/10/21 06:41:07;;;;;;;;;9.00;5.50;;;;;18.23;70.30;100174.44;5092399;27;45522;-60
2022/10/21 06:43:32;;;;;;;;;6.00;4.75;;;;;18.21;70.21;100170.09;5080664;27;47286;-60
2022/10/21 06:46:00;;;;;;;;;5.00;4.00;;;;;18.20;70.17;100157.81;5088516;27;45340;-60
2022/10/21 06:48:25;;;;;;;;;5.00;3.50;;;;;18.19;70.11;100155.28;5093195;27;45514;-59
2022/10/21 06:50:58;;;;;;;;;4.50;3.25;;;;;18.18;69.94;100156.22;5093505;27;45363;-59
2022/10/21 06:53:24;;;;;;;;;7.25;4.00;;;;;18.18;70.42;100156.22;5077673;27;46085;-59
2022/10/21 06:55:49;;;;;;;;;4.75;3.75;;;;;18.19;70.10;100165.88;5098569;27;45391;-59
2022/10/21 06:58:15;;;;;;;;;5.50;5.00;;;;;18.20;70.46;100175.50;5092060;27;52540;-61
2022/10/21 07:00:40;;;;;;;;;9.00;5.75;;;;;18.18;69.99;100164.16;5091637;27;68997;-60
2022/10/21 07:03:05;;;;;;;;;7.00;5.00;;;;;18.17;70.18;100162.47;5080359;27;69981;-59
2022/10/21 07:05:31;;;;;;;;;7.00;5.00;;;;;18.16;69.82;100160.78;5091156;27;64862;-61
2022/10/21 07:07:56;;;;;;;;;6.50;5.00;;;;;18.12;70.53;100152.19;5085470;27;45485;-59
2022/10/21 07:10:21;;;;;;;;;6.50;4.00;;;;;18.12;70.48;100151.34;5094885;27;65667;-59
2022/10/21 07:12:47;;;;;;;;;7.50;5.00;;;;;18.12;70.26;100146.06;5094800;27;45599;-59
2022/10/21 07:15:12;;;;;;;;;9.00;4.25;;;;;18.09;70.61;100144.44;5096105;27;63362;-59
2022/10/21 07:17:37;;;;;;;;;7.50;6.25;;;;;18.09;70.95;100154.19;5090808;27;45957;-59
2022/10/21 07:20:03;;;;;;;;;4.75;4.75;;;;;18.06;70.76;100149.97;5093701;27;69688;-58
2022/10/21 07:22:28;;;;;;;;;5.00;4.00;;;;;18.10;70.94;100175.28;5095442;27;45367;-59
2022/10/21 07:24:54;;;;;;;;;7.75;4.00;;;;;18.13;70.60;100190.09;5092453;27;45308;-59
2022/10/21 07:27:19;;;;;;;;;6.50;5.00;;;;;18.12;70.69;100201.66;5092323;27;69173;-60
2022/10/21 07:29:44;;;;;;;;;4.25;4.25;;;;;18.12;70.52;100209.59;5078199;27;45459;-59
2022/10/21 07:32:10;;;;;;;;;6.75;3.25;;;;;18.10;70.96;100222.94;5068079;27;46152;-59
2022/10/21 07:34:35;;;;;;;;;4.00;3.75;;;;;18.07;70.83;100194.00;5096173;27;57820;-59
2022/10/21 07:37:00;;;;;;;;;5.00;4.00;;;;;18.12;70.90;100175.19;5089807;27;45702;-59
2022/10/21 07:39:26;;;;;;;;;6.50;4.75;;;;;18.12;71.09;100183.97;5092390;27;71679;-58
2022/10/21 07:41:54;;;;;;;;;6.25;3.50;;;;;18.14;70.86;100205.03;5090349;27;46213;-59
2022/10/21 07:44:21;;;;;;;;;5.25;4.00;;;;;18.14;70.74;100226.22;5091686;27;45435;-59
2022/10/21 07:46:47;;;;;;;;;5.75;4.25;;;;;18.14;70.72;100228.88;5089943;27;45397;-59
2022/10/21 07:49:13;;;;;;;;;5.00;3.00;;;;;18.14;70.74;100221.78;5093051;27;45295;-59
2022/10/21 07:51:39;;;;;;;;;8.75;2.75;;;;;18.14;71.00;100224.41;5089396;27;46304;-58
2022/10/21 07:54:04;;;;;;;;;3.25;3.00;;;;;18.16;70.65;100216.38;5093301;27;45580;-59
2022/10/21 07:56:33;;;;;;;;;7.00;2.75;;;;;18.16;70.62;100216.38;5100231;27;45422;-59
2022/10/21 07:59:00;;;;;;;;;3.50;2.25;;;;;18.19;70.73;100211.72;5100569;27;45363;-58
2022/10/21 08:01:26;;;;;;;;;4.00;3.00;;;;;18.20;70.61;100208.13;5075288;27;47168;-56
2022/10/21 08:03:53;;;;;;;;;3.75;3.75;;;;;18.20;70.42;100224.03;5075249;27;45529;-57
2022/10/21 08:06:18;;;;;;;;;8.00;2.50;;;;;18.24;70.58;100215.84;5094382;27;45517;-57
2022/10/21 08:08:44;;;;;;;;;5.00;3.00;;;;;18.25;70.26;100206.97;5090183;27;65105;-58
2022/10/21 08:11:10;;;;;;;;;59.25;44.50;;;;;18.28;70.18;100218.22;5083080;27;46514;-58
2022/10/21 08:13:38;;;;;;;;;58.50;45.50;;;;;18.29;70.40;100224.34;5092601;27;45477;-58
2022/10/21 08:16:04;;;;;;;;;5.75;5.75;;;;;18.30;70.15;100221.59;5094841;27;45274;-59
2022/10/21 08:18:31;;;;;;;;;5.50;4.00;;;;;18.31;70.59;100225.97;5096581;27;45354;-59
2022/10/21 08:20:56;;;;;;;;;5.00;4.50;;;;;18.34;70.32;100228.41;5095074;27;45517;-59
2022/10/21 08:23:23;;;;;;;;;12.50;10.50;;;;;18.40;70.66;100230.63;5098562;27;52658;-59
2022/10/21 08:25:50;;;;;;;;;8.50;7.00;;;;;18.45;70.51;100234.75;5072018;27;45401;-59
2022/10/21 08:28:17;;;;;;;;;7.75;5.75;;;;;18.51;70.38;100229.03;5087103;27;45517;-59
2022/10/21 08:30:43;;;;;;;;;7.00;6.50;;;;;18.55;70.14;100236.66;5104676;27;45482;-59
2022/10/21 08:33:10;;;;;;;;;4.25;4.25;;;;;18.60;70.64;100236.34;5093279;27;45724;-60
2022/10/21 08:35:36;;;;;;;;;11.25;9.00;;;;;18.65;70.75;100247.50;5099533;27;45404;-60
2022/10/21 08:38:01;;;;;;;;;7.00;4.25;;;;;18.68;70.58;100244.66;5097771;27;45347;-59
2022/10/21 08:40:30;;;;;;;;;6.75;5.00;;;;;18.73;70.33;100244.31;5101287;27;45337;-60
2022/10/21 08:42:55;;;;;;;;;14.00;10.25;;;;;18.78;70.37;100243.03;5082985;27;45395;-59
2022/10/21 08:45:29;;;;;;;;;31.75;24.25;;;;;18.81;70.07;100242.00;5102077;27;45299;-60
2022/10/21 08:47:59;;;;;;;;;11.00;9.00;;;;;18.84;70.26;100236.50;5099081;27;45478;-59
2022/10/21 08:50:37;;;;;;;;;8.50;6.75;;;;;18.85;70.01;100238.19;5101657;27;46227;-60
2022/10/21 08:53:12;;;;;;;;;6.25;5.00;;;;;18.89;69.80;100236.16;5095125;27;45684;-61
2022/10/21 08:55:40;;;;;;;;;7.75;6.00;;;;;18.90;69.68;100238.72;5079099;27;45810;-61
2022/10/21 08:58:12;;;;;;;;;4.50;4.50;;;;;18.94;69.63;100247.31;5065358;27;45816;-59
2022/10/21 09:00:54;;;;;;;;;7.50;5.75;;;;;18.97;69.62;100247.09;5082637;27;46027;-59
2022/10/21 09:03:34;;;;;;;;;5.25;3.00;;;;;19.00;69.24;100238.06;5079514;28;45236;-59
2022/10/21 09:06:08;;;;;;;;;6.75;4.75;;;;;19.01;69.48;100245.09;5067846;28;45646;-59
2022/10/21 09:08:38;;;;;;;;;15.00;14.00;;;;;19.05;69.37;100250.06;5079518;27;45511;-59
2022/10/21 09:11:22;;;;;;;;;10.75;7.25;;;;;19.10;69.65;100244.44;5100445;27;45631;-59
2022/10/21 09:13:53;;;;;;;;;4.75;3.00;;;;;19.14;69.59;100243.25;5096345;27;45317;-59
2022/10/21 09:16:38;;;;;;;;;5.50;5.50;;;;;19.19;69.65;100238.47;5081124;27;45589;-60
2022/10/21 09:19:16;;;;;;;;;9.50;6.50;;;;;19.23;69.32;100239.97;5072794;27;45484;-60
2022/10/21 09:21:56;;;;;;;;;5.50;5.00;;;;;19.25;69.02;100240.69;5100859;27;45633;-60
2022/10/21 09:24:34;;;;;;;;;6.00;5.75;;;;;19.29;68.77;100236.03;5101325;27;45225;-59
2022/10/21 09:27:01;;;;;;;;;6.00;3.00;;;;;19.30;68.88;100250.97;5089139;27;45442;-60
2022/10/21 09:29:28;;;;;;;;;6.00;5.00;;;;;19.32;69.04;100239.31;5090088;27;45494;-60
2022/10/21 09:31:58;;;;;;;;;7.50;6.00;;;;;19.34;68.52;100240.03;5081160;27;46451;-60
2022/10/21 09:34:46;;;;;;;;;9.75;5.50;;;;;19.37;68.41;100243.41;5082661;27;45467;-59
2022/10/21 09:37:35;;;;;;;;;9.25;7.00;;;;;19.39;68.58;100241.50;5100479;27;45341;-60
2022/10/21 09:40:14;;;;;;;;;7.00;5.50;;;;;19.41;68.24;100243.09;5065372;27;45322;-58
2022/10/21 09:42:40;;;;;;;;;8.00;4.50;;;;;19.42;68.13;100235.97;5100932;27;46180;-59
2022/10/21 09:45:21;;;;;;;;;6.00;5.00;;;;;19.45;68.53;100239.25;5100549;27;58752;-59
2022/10/21 09:47:53;;;;;;;;;5.00;4.00;;;;;19.47;68.17;100231.19;5100537;27;45233;-59
2022/10/21 09:50:19;;;;;;;;;5.25;4.00;;;;;19.51;68.23;100225.56;5081869;27;45293;-58
2022/10/21 09:52:48;;;;;;;;;5.25;5.00;;;;;19.56;68.05;100227.88;5093994;27;46456;-58
2022/10/21 09:55:14;;;;;;;;;6.00;5.00;;;;;19.58;68.00;100233.91;5099736;27;45691;-59
2022/10/21 09:57:47;;;;;;;;;7.00;5.00;;;;;19.63;68.19;100241.53;5100611;27;45578;-58
2022/10/21 10:00:13;;;;;;;;;5.25;4.00;;;;;19.67;67.82;100237.69;5079160;28;45248;-60
2022/10/21 10:02:42;;;;;;;;;7.50;6.25;;;;;19.70;67.45;100238.31;5079569;27;52271;-59
2022/10/21 10:05:34;;;;;;;;;5.50;5.25;;;;;19.73;67.94;100245.22;5093019;27;45823;-59
2022/10/21 10:08:00;;;;;;;;;4.00;4.00;;;;;19.76;67.25;100250.34;5088055;27;45612;-58
2022/10/21 10:10:32;;;;;;;;;7.75;5.25;;;;;19.80;67.28;100251.81;5081870;27;45331;-60
2022/10/21 10:12:58;;;;;;;;;4.25;4.00;;;;;19.83;67.46;100250.72;5082220;27;46952;-59
2022/10/21 10:15:32;;;;;;;;;5.75;5.75;;;;;19.86;67.12;100248.69;5100316;27;45399;-59
2022/10/21 10:17:58;;;;;;;;;4.25;4.00;;;;;19.89;66.71;100242.31;5079088;28;45160;-58
2022/10/21 10:20:24;;;;;;;;;27.00;23.50;;;;;19.92;66.97;100237.63;5096429;27;45495;-59
2022/10/21 10:23:08;;;;;;;;;15.00;12.25;;;;;19.98;66.74;100244.28;5099818;27;45350;-58
2022/10/21 10:25:35;;;;;;;;;9.75;6.75;;;;;19.99;66.70;100248.66;5079641;27;45496;-58
2022/10/21 10:28:08;;;;;;;;;12.75;10.00;;;;;19.99;66.74;100251.31;5079796;27;45585;-60
2022/10/21 10:30:47;;;;;;;;;11.00;9.75;;;;;20.00;65.99;100249.50;5081308;27;45459;-60
2022/10/21 10:33:33;;;;;;;;;9.75;7.00;;;;;20.00;66.08;100250.31;5098041;27;45486;-60
2022/10/21 10:36:01;;;;;;;;;13.25;11.00;;;;;20.01;66.01;100246.72;5079791;27;45804;-58
2022/10/21 10:38:40;;;;;;;;;18.50;15.75;;;;;20.04;66.01;100256.25;5099761;27;45326;-56
2022/10/21 10:41:08;;;;;;;;;12.50;11.00;;;;;20.07;66.15;100245.41;5080834;27;45497;-58
2022/10/21 10:43:35;;;;;;;;;9.00;7.50;;;;;20.06;66.37;100236.59;5099944;27;45352;-57
2022/10/21 10:46:03;;;;;;;;;12.50;12.25;;;;;20.07;66.07;100237.44;5086163;27;45237;-59
2022/10/21 10:48:42;;;;;;;;;8.50;6.75;;;;;20.07;65.41;100240.09;5100066;27;45511;-60
2022/10/21 10:51:23;;;;;;;;;13.00;7.25;;;;;20.10;65.22;100240.72;5081037;27;45593;-58
2022/10/21 10:54:10;;;;;;;;;12.00;9.50;;;;;20.15;66.00;100248.34;5093168;27;45400;-58
2022/10/21 10:56:42;;;;;;;;;7.50;4.50;;;;;20.16;65.49;100242.06;5081302;27;45405;-57
2022/10/21 10:59:16;;;;;;;;;8.50;7.00;;;;;20.20;65.92;100240.88;5080745;27;45287;-58
2022/10/21 11:02:32;;;;;;;;;10.00;10.00;;;;;20.22;65.75;100238.97;5081165;27;45334;-58
2022/10/21 11:05:07;;;;;;;;;12.00;9.00;;;;;20.25;65.32;100235.22;5099719;27;47116;-59
2022/10/21 11:07:37;;;;;;;;;7.75;5.50;;;;;20.27;65.52;100239.47;5087380;27;45211;-59
2022/10/21 11:10:09;;;;;;;;;8.25;7.00;;;;;20.29;65.57;100236.66;5068078;27;45315;-59
2022/10/21 11:12:35;;;;;;;;;10.00;8.00;;;;;20.32;65.64;100235.59;5080943;27;45507;-60
2022/10/21 11:15:00;;;;;;;;;10.50;6.00;;;;;20.34;65.15;100228.34;5087955;27;46137;-59
2022/10/21 11:17:40;;;;;;;;;5.00;4.00;;;;;20.36;64.84;100231.72;5087179;27;45360;-59
2022/10/21 11:20:20;;;;;;;;;10.25;6.75;;;;;20.39;64.51;100231.50;5081989;27;45380;-60
2022/10/21 11:23:00;;;;;;;;;14.50;9.75;;;;;20.43;64.46;100233.81;5084056;27;45591;-58
2022/10/21 11:25:36;;;;;;;;;11.00;6.75;;;;;20.48;64.47;100238.78;5084622;27;45273;-56
2022/10/21 11:28:25;;;;;;;;;7.00;6.50;;;;;20.52;63.92;100228.75;5102017;27;45291;-58
2022/10/21 11:31:03;;;;;;;;;7.50;6.75;;;;;20.56;64.33;100219.59;5080147;27;45415;-57